PWSweather.com
Personal Weather Stations
Station Observations
UWIDEPER1
Brown County, Depere, WI 54115

Brown CountyDepere, WI 54115

Lat: 44.44, Lon: -88.05

Elevation: 610

Station Type: Acurite 5in1

Latest ConditionsUpdated 6:00:01 AM CST Tuesday, Dec 6, 2016
Currently Today's Max Today's Min Today's Average
Temperature 36.5°F2.5°C 37.2°F2.9°C 35.0°F1.7°C 36.6°F2.6°C
Dew Point 34.1°F1.2°C 35.2°F1.8°C 33.2°F0.7°C 34.4°F1.3°C
Winds 3.5 mph SE5.6 kmh SE 9.2 mph ESE14.8 kmh ESE - 4.3 mph 6.9 kmh
Wind Gusts 8.1 mph13.0 kmh 12.7 mph20.4 kmh - -
Humidity 91% 93% 91% 92%
Pressure 29.82 in1009.8 mb 29.88 in1011.9 mb 29.82 in1009.8 mb -
Hour Temp Dew Point Humidity Winds Wind Gusts Pressure Precip Precip Rate Daily Precip Total
06:00 AM 36.5°F2.5°C 34.1°F1.2°C 91% 3.5 mph SE5.6 kmh SE 8.1 mph13.0 kmh 29.82 in1009.8 mb - 0.00 in0.0 mm 0.01 in0.3 mm
05:55 AM 36.5°F2.5°C 34.1°F1.2°C 91% 8.1 mph SE13.0 kmh SE 8.1 mph13.0 kmh 29.83 in1010.2 mb - 0.00 in0.0 mm 0.01 in0.3 mm
05:50 AM 36.2°F2.3°C 33.8°F1.0°C 91% 3.5 mph SE5.6 kmh SE 8.1 mph13.0 kmh 29.83 in1010.2 mb - 0.00 in0.0 mm 0.01 in0.3 mm
05:45 AM 36.2°F2.3°C 33.8°F1.0°C 91% 3.5 mph ESE5.6 kmh ESE 8.1 mph13.0 kmh 29.82 in1009.8 mb - 0.00 in0.0 mm 0.01 in0.3 mm
05:40 AM 36.2°F2.3°C 33.8°F1.0°C 91% 3.5 mph S5.6 kmh S 6.9 mph11.1 kmh 29.82 in1009.8 mb - 0.00 in0.0 mm 0.01 in0.3 mm
05:35 AM 36.2°F2.3°C 33.8°F1.0°C 91% 3.5 mph SSE5.6 kmh SSE 5.8 mph9.3 kmh 29.83 in1010.2 mb - 0.00 in0.0 mm 0.01 in0.3 mm
05:30 AM 36.5°F2.5°C 34.1°F1.2°C 91% 4.6 mph SE7.4 kmh SE 6.9 mph11.1 kmh 29.82 in1009.8 mb - 0.00 in0.0 mm 0.01 in0.3 mm
05:25 AM 36.5°F2.5°C 34.1°F1.2°C 91% 3.5 mph SE5.6 kmh SE 6.9 mph11.1 kmh 29.82 in1009.8 mb - 0.00 in0.0 mm 0.01 in0.3 mm
05:20 AM 36.7°F2.6°C 34.3°F1.3°C 91% 4.6 mph SSE7.4 kmh SSE 6.9 mph11.1 kmh 29.82 in1009.8 mb - 0.00 in0.0 mm 0.01 in0.3 mm
05:15 AM 36.7°F2.6°C 34.3°F1.3°C 91% 3.5 mph S5.6 kmh S 8.1 mph13.0 kmh 29.82 in1009.8 mb - 0.00 in0.0 mm 0.01 in0.3 mm
05:10 AM 36.7°F2.6°C 34.3°F1.3°C 91% 3.5 mph ESE5.6 kmh ESE 10.4 mph16.7 kmh 29.82 in1009.8 mb - 0.00 in0.0 mm 0.01 in0.3 mm
05:00 AM 36.7°F2.6°C 34.3°F1.3°C 91% 4.6 mph SSE7.4 kmh SSE 11.5 mph18.5 kmh 29.82 in1009.8 mb - 0.00 in0.0 mm 0.01 in0.3 mm
04:55 AM 36.7°F2.6°C 34.3°F1.3°C 91% 6.9 mph ESE11.1 kmh ESE 11.5 mph18.5 kmh 29.82 in1009.8 mb - 0.00 in0.0 mm 0.01 in0.3 mm
04:50 AM 36.7°F2.6°C 34.3°F1.3°C 91% 3.5 mph ESE5.6 kmh ESE 9.2 mph14.8 kmh 29.83 in1010.2 mb - 0.00 in0.0 mm 0.01 in0.3 mm
04:45 AM 36.7°F2.6°C 34.3°F1.3°C 91% 3.5 mph SSE5.6 kmh SSE 9.2 mph14.8 kmh 29.83 in1010.2 mb - 0.00 in0.0 mm 0.01 in0.3 mm
04:40 AM 36.9°F2.7°C 34.5°F1.4°C 91% 5.8 mph SE9.3 kmh SE 10.4 mph16.7 kmh 29.83 in1010.2 mb - 0.00 in0.0 mm 0.01 in0.3 mm
04:35 AM 36.9°F2.7°C 34.5°F1.4°C 91% 4.6 mph SE7.4 kmh SE 10.4 mph16.7 kmh 29.83 in1010.2 mb - 0.00 in0.0 mm 0.01 in0.3 mm
04:30 AM 36.9°F2.7°C 34.5°F1.4°C 91% 8.1 mph ESE13.0 kmh ESE 10.4 mph16.7 kmh 29.83 in1010.2 mb - 0.00 in0.0 mm 0.01 in0.3 mm
04:25 AM 36.9°F2.7°C 34.5°F1.4°C 91% 5.8 mph SSE9.3 kmh SSE 9.2 mph14.8 kmh 29.84 in1010.5 mb - 0.00 in0.0 mm 0.01 in0.3 mm
04:20 AM 36.9°F2.7°C 34.5°F1.4°C 91% 2.3 mph ESE3.7 kmh ESE 6.9 mph11.1 kmh 29.83 in1010.2 mb - 0.00 in0.0 mm 0.01 in0.3 mm
04:15 AM 36.9°F2.7°C 34.5°F1.4°C 91% 3.5 mph ESE5.6 kmh ESE 6.9 mph11.1 kmh 29.84 in1010.5 mb - 0.00 in0.0 mm 0.01 in0.3 mm
04:10 AM 36.9°F2.7°C 34.5°F1.4°C 91% 3.5 mph SE5.6 kmh SE 5.8 mph9.3 kmh 29.84 in1010.5 mb - 0.00 in0.0 mm 0.01 in0.3 mm
04:00 AM 37.0°F2.8°C 34.6°F1.4°C 91% 3.5 mph ESE5.6 kmh ESE 5.8 mph9.3 kmh 29.85 in1010.8 mb - 0.00 in0.0 mm 0.01 in0.3 mm
03:55 AM 37.0°F2.8°C 34.6°F1.4°C 91% 4.6 mph SSE7.4 kmh SSE 5.8 mph9.3 kmh 29.84 in1010.5 mb - 0.00 in0.0 mm 0.01 in0.3 mm
03:50 AM 37.0°F2.8°C 34.6°F1.4°C 91% 2.3 mph S3.7 kmh S 4.6 mph7.4 kmh 29.85 in1010.8 mb - 0.00 in0.0 mm 0.01 in0.3 mm
03:45 AM 37.0°F2.8°C 34.6°F1.4°C 91% 3.5 mph ESE5.6 kmh ESE 5.8 mph9.3 kmh 29.85 in1010.8 mb - 0.00 in0.0 mm 0.01 in0.3 mm
03:40 AM 37.0°F2.8°C 34.6°F1.4°C 91% 4.6 mph ESE7.4 kmh ESE 5.8 mph9.3 kmh 29.85 in1010.8 mb - 0.00 in0.0 mm 0.01 in0.3 mm
03:35 AM 37.0°F2.8°C 34.6°F1.4°C 91% 3.5 mph SSE5.6 kmh SSE 6.9 mph11.1 kmh 29.85 in1010.8 mb - 0.00 in0.0 mm 0.01 in0.3 mm
03:30 AM 37.0°F2.8°C 34.6°F1.4°C 91% 3.5 mph SSW5.6 kmh SSW 6.9 mph11.1 kmh 29.86 in1011.2 mb - 0.00 in0.0 mm 0.01 in0.3 mm
03:25 AM 37.0°F2.8°C 34.6°F1.4°C 91% 1.2 mph S1.9 kmh S 6.9 mph11.1 kmh 29.86 in1011.2 mb - 0.00 in0.0 mm 0.01 in0.3 mm
03:20 AM 37.0°F2.8°C 34.6°F1.4°C 91% 4.6 mph S7.4 kmh S 6.9 mph11.1 kmh 29.86 in1011.2 mb - 0.00 in0.0 mm 0.01 in0.3 mm
03:15 AM 37.0°F2.8°C 34.6°F1.4°C 91% 6.9 mph SSW11.1 kmh SSW 6.9 mph11.1 kmh 29.86 in1011.2 mb - 0.00 in0.0 mm 0.01 in0.3 mm
03:10 AM 37.0°F2.8°C 34.6°F1.4°C 91% 3.5 mph SSE5.6 kmh SSE 10.4 mph16.7 kmh 29.85 in1010.8 mb - 0.00 in0.0 mm 0.01 in0.3 mm
03:00 AM 37.0°F2.8°C 34.6°F1.4°C 91% 4.6 mph S7.4 kmh S 6.9 mph11.1 kmh 29.86 in1011.2 mb - 0.00 in0.0 mm 0.01 in0.3 mm
02:55 AM 37.0°F2.8°C 34.6°F1.4°C 91% 3.5 mph S5.6 kmh S 8.1 mph13.0 kmh 29.85 in1010.8 mb - 0.00 in0.0 mm 0.01 in0.3 mm
02:50 AM 37.0°F2.8°C 34.6°F1.4°C 91% 3.5 mph SSE5.6 kmh SSE 8.1 mph13.0 kmh 29.85 in1010.8 mb - 0.00 in0.0 mm 0.01 in0.3 mm
02:45 AM 37.0°F2.8°C 34.6°F1.4°C 91% 5.8 mph SSE9.3 kmh SSE 10.4 mph16.7 kmh 29.85 in1010.8 mb - 0.00 in0.0 mm 0.01 in0.3 mm
02:40 AM 37.2°F2.9°C 34.8°F1.6°C 91% 3.5 mph SE5.6 kmh SE 12.7 mph20.4 kmh 29.86 in1011.2 mb - 0.00 in0.0 mm 0.01 in0.3 mm
02:35 AM 37.2°F2.9°C 34.8°F1.6°C 91% 3.5 mph ESE5.6 kmh ESE 12.7 mph20.4 kmh 29.85 in1010.8 mb - 0.00 in0.0 mm 0.01 in0.3 mm
02:30 AM 37.2°F2.9°C 34.8°F1.6°C 91% 3.5 mph SSW5.6 kmh SSW 11.5 mph18.5 kmh 29.85 in1010.8 mb - 0.00 in0.0 mm 0.01 in0.3 mm
02:25 AM 37.2°F2.9°C 34.8°F1.6°C 91% 4.6 mph SSE7.4 kmh SSE 11.5 mph18.5 kmh 29.86 in1011.2 mb - 0.00 in0.0 mm 0.01 in0.3 mm
02:20 AM 37.2°F2.9°C 34.8°F1.6°C 91% 9.2 mph ESE14.8 kmh ESE 9.2 mph14.8 kmh 29.86 in1011.2 mb - 0.00 in0.0 mm 0.01 in0.3 mm
02:15 AM 37.2°F2.9°C 34.8°F1.6°C 91% 4.6 mph ESE7.4 kmh ESE 10.4 mph16.7 kmh 29.86 in1011.2 mb - 0.00 in0.0 mm 0.01 in0.3 mm
02:10 AM 37.2°F2.9°C 34.8°F1.6°C 91% 4.6 mph SE7.4 kmh SE 10.4 mph16.7 kmh 29.87 in1011.5 mb - 0.00 in0.0 mm 0.01 in0.3 mm
02:00 AM 37.2°F2.9°C 34.8°F1.6°C 91% 5.8 mph ESE9.3 kmh ESE 9.2 mph14.8 kmh 29.87 in1011.5 mb - 0.00 in0.0 mm 0.01 in0.3 mm
01:55 AM 37.2°F2.9°C 34.8°F1.6°C 91% 3.5 mph SSE5.6 kmh SSE 12.7 mph20.4 kmh 29.87 in1011.5 mb - 0.00 in0.0 mm 0.01 in0.3 mm
01:50 AM 37.2°F2.9°C 34.8°F1.6°C 91% 4.6 mph ESE7.4 kmh ESE 12.7 mph20.4 kmh 29.87 in1011.5 mb - 0.00 in0.0 mm 0.01 in0.3 mm
01:45 AM 37.0°F2.8°C 35.2°F1.8°C 93% 9.2 mph S14.8 kmh S 9.2 mph14.8 kmh 29.87 in1011.5 mb - 0.00 in0.0 mm 0.01 in0.3 mm
01:40 AM 37.0°F2.8°C 35.2°F1.8°C 93% 9.2 mph ESE14.8 kmh ESE 9.2 mph14.8 kmh 29.88 in1011.9 mb - 0.00 in0.0 mm 0.01 in0.3 mm
01:35 AM 36.9°F2.7°C 35.1°F1.7°C 93% 3.5 mph ESE5.6 kmh ESE 9.2 mph14.8 kmh 29.88 in1011.9 mb - 0.00 in0.0 mm 0.01 in0.3 mm
01:30 AM 36.9°F2.7°C 35.1°F1.7°C 93% 5.8 mph SE9.3 kmh SE 9.2 mph14.8 kmh 29.87 in1011.5 mb - 0.00 in0.0 mm 0.01 in0.3 mm
01:25 AM 36.7°F2.6°C 34.9°F1.6°C 93% 3.5 mph ESE5.6 kmh ESE 6.9 mph11.1 kmh 29.88 in1011.9 mb - 0.00 in0.0 mm 0.01 in0.3 mm
01:20 AM 36.7°F2.6°C 34.9°F1.6°C 93% 3.5 mph SW5.6 kmh SW 6.9 mph11.1 kmh 29.88 in1011.9 mb - 0.00 in0.0 mm 0.01 in0.3 mm
01:15 AM 36.5°F2.5°C 34.7°F1.5°C 93% 2.3 mph ESE3.7 kmh ESE 8.1 mph13.0 kmh 29.88 in1011.9 mb - 0.00 in0.0 mm 0.01 in0.3 mm
01:10 AM 36.2°F2.3°C 34.4°F1.3°C 93% 5.8 mph S9.3 kmh S 8.1 mph13.0 kmh 29.88 in1011.9 mb - 0.00 in0.0 mm 0.01 in0.3 mm
01:00 AM 36.1°F2.3°C 34.3°F1.3°C 93% 3.5 mph SSE5.6 kmh SSE 6.9 mph11.1 kmh 29.88 in1011.9 mb - 0.00 in0.0 mm 0.01 in0.3 mm
12:55 AM 36.1°F2.3°C 34.3°F1.3°C 93% 3.5 mph SW5.6 kmh SW 6.9 mph11.1 kmh 29.88 in1011.9 mb - 0.00 in0.0 mm 0.01 in0.3 mm
12:50 AM 35.9°F2.2°C 34.1°F1.2°C 93% 6.9 mph SSE11.1 kmh SSE 6.9 mph11.1 kmh 29.87 in1011.5 mb - 0.00 in0.0 mm 0.01 in0.3 mm
12:45 AM 35.9°F2.2°C 34.1°F1.2°C 93% 3.5 mph SSE5.6 kmh SSE 5.8 mph9.3 kmh 29.88 in1011.9 mb - 0.00 in0.0 mm 0.01 in0.3 mm
12:40 AM 35.7°F2.1°C 33.9°F1.1°C 93% 3.5 mph SE5.6 kmh SE 5.8 mph9.3 kmh 29.88 in1011.9 mb - 0.00 in0.0 mm 0.01 in0.3 mm
12:35 AM 35.7°F2.1°C 33.9°F1.1°C 93% 2.3 mph S3.7 kmh S 6.9 mph11.1 kmh 29.88 in1011.9 mb - 0.00 in0.0 mm 0.01 in0.3 mm
12:30 AM 35.7°F2.1°C 33.9°F1.1°C 93% 2.3 mph SSW3.7 kmh SSW 6.9 mph11.1 kmh 29.88 in1011.9 mb - 0.00 in0.0 mm 0.01 in0.3 mm
12:25 AM 35.5°F1.9°C 33.7°F0.9°C 93% 3.5 mph ESE5.6 kmh ESE 6.9 mph11.1 kmh 29.88 in1011.9 mb - 0.00 in0.0 mm 0.01 in0.3 mm
12:20 AM 35.5°F1.9°C 33.7°F0.9°C 93% 3.5 mph SW5.6 kmh SW 6.9 mph11.1 kmh 29.88 in1011.9 mb - 0.00 in0.0 mm 0.01 in0.3 mm
12:15 AM 35.4°F1.9°C 33.6°F0.9°C 93% 4.6 mph S7.4 kmh S 6.9 mph11.1 kmh 29.88 in1011.9 mb - 0.00 in0.0 mm 0.01 in0.3 mm
12:10 AM 35.4°F1.9°C 33.6°F0.9°C 93% 2.3 mph S3.7 kmh S 5.8 mph9.3 kmh 29.88 in1011.9 mb - 0.00 in0.0 mm 0.01 in0.3 mm
12:00 AM 35.0°F1.7°C 33.2°F0.7°C 93% 3.5 mph S5.6 kmh S 6.9 mph11.1 kmh 29.88 in1011.9 mb - 0.01 in0.3 mm 0.01 in0.3 mm